Exceptional Flight Instruction

Our Team

Safe Aircraft

Our Rentals

Outstanding Customer Service

Contact Us

AeroCamp 2017

AeroCamp Times (M-F 9AM-3PM)
June 19-23, 2017 – OPEN
July 10-14, 2017 – OPEN
$649/wk per Cadet (Roster size limited)

AeroCamp 2.0 Times (M-T 9AM-3PM)
June 26-29, 2017 – OPEN
July 17-20, 2017 – OPEN
$749/wk per Cadet (Roster size limited)

AeroCamp 3.0 Times (M-W – INCLUDES KITTY HAWK!)
June 12-14, 2017 – OPEN
August 7-9, 2017 – OPEN
$849/wk per Cadet (Roster size limited)

AeroCamp 4.0 Times (INCLUDES OSHKOSH!!)

July 24-28, 2017 - OPEN

Price TBD (Roster size limited)

About Us

Triad Aviation Academy, LLC


1030 PTI Drive
Greensboro, NC 27409

Phone: (336) 369-2804
Fax: (336) 664-6942

Weather

Available data for KGSO from the past 2 hours
GREENSBORO, NC
Metar
KGSO 262254Z 00000KT 10SM SCT070 SCT090 BKN250 31/22 A2996 RMK AO2 TSE25 SLP130 TS MOV E CB DSNT SE T03060217

22:54 UTC

Wind: 0° 0kt

Visibility: 10 SM

Sky: SCT 7000 ft

Temp: 31 deg C / 87.8 deg F

Dewpoint: 22 deg C / 71.6 deg F

Pressure: 29.96 inHg

TAF
KGSO 262106Z 2621/2718 22006KT P6SM BKN060 BKN200 TEMPO 2621/2624 VRB10G20KT 6SM TS BKN050CB FM270200 21006KT P6SM FEW060 BKN120 FM271500 24010KT P6SM SCT040 SCT200